Time;durP1;ratioP1;P1;durP2;ratioP2;P2;SDS_P1;SDS_P2;PMS_P1;PMS_P2;Temp;Humidity;BMP_temperature;BMP_pressure;BME280_temperature;BME280_humidity;BME280_pressure;Samples;Min_cycle;Max_cycle;Signal;HPM_P1;HPM_P2
2023/03/24 00:01:45;;;;;;;6.10;1.70;;;;;;;;;;4930094;28;20239;-69
2023/03/24 00:04:14;;;;;;;5.60;1.60;;;;;;;;;;4939999;28;20054;-69
2023/03/24 00:06:43;;;;;;;8.10;1.70;;;;;;;;;;4935006;28;20038;-69
2023/03/24 00:09:15;;;;;;;5.32;1.55;;;;;;;;;;4943457;28;20039;-69
2023/03/24 00:11:50;;;;;;;10.00;1.60;;;;;;;;;;4933124;28;20414;-69
2023/03/24 00:14:17;;;;;;;6.43;2.00;;;;;;;;;;4942520;28;20034;-70
2023/03/24 00:16:46;;;;;;;6.55;1.30;;;;;;;;;;4935552;28;21055;-70
2023/03/24 00:19:19;;;;;;;5.18;1.52;;;;;;;;;;4940161;28;20299;-70
2023/03/24 00:21:48;;;;;;;5.22;1.45;;;;;;;;;;4939336;28;20824;-69
2023/03/24 00:24:15;;;;;;;7.35;2.28;;;;;;;;;;4932154;28;20119;-69
2023/03/24 00:26:42;;;;;;;5.75;1.80;;;;;;;;;;4920712;28;20365;-69
2023/03/24 00:29:11;;;;;;;4.88;1.50;;;;;;;;;;4940599;28;20042;-69
2023/03/24 00:31:39;;;;;;;5.60;1.70;;;;;;;;;;4931866;28;20030;-69
2023/03/24 00:34:09;;;;;;;7.32;2.25;;;;;;;;;;4939085;28;20142;-69
2023/03/24 00:36:38;;;;;;;7.05;2.35;;;;;;;;;;4913379;28;20536;-69
2023/03/24 00:39:05;;;;;;;7.40;2.60;;;;;;;;;;4937349;28;20705;-68
2023/03/24 00:41:34;;;;;;;6.15;2.10;;;;;;;;;;4941386;28;20033;-69
2023/03/24 00:44:08;;;;;;;4.25;1.40;;;;;;;;;;4922953;28;20054;-69
2023/03/24 00:46:36;;;;;;;5.13;1.20;;;;;;;;;;4923410;28;20035;-69
2023/03/24 00:49:04;;;;;;;5.13;1.17;;;;;;;;;;4940973;28;20545;-68
2023/03/24 00:51:50;;;;;;;4.05;1.00;;;;;;;;;;4927321;28;20488;-69
2023/03/24 00:54:20;;;;;;;6.53;1.30;;;;;;;;;;4940820;28;20027;-69
2023/03/24 00:56:48;;;;;;;6.38;1.20;;;;;;;;;;4924429;28;20071;-69
2023/03/24 00:59:15;;;;;;;7.43;1.10;;;;;;;;;;4937809;28;20035;-69
2023/03/24 01:01:44;;;;;;;5.18;1.10;;;;;;;;;;4936847;28;20502;-69
2023/03/24 01:04:12;;;;;;;6.30;1.60;;;;;;;;;;4940385;28;20030;-69
2023/03/24 01:06:40;;;;;;;5.55;1.40;;;;;;;;;;4930557;28;20030;-69
2023/03/24 01:09:09;;;;;;;4.38;1.02;;;;;;;;;;4923197;28;20049;-70
2023/03/24 01:11:41;;;;;;;6.25;1.20;;;;;;;;;;4935504;28;20067;-70
2023/03/24 01:14:08;;;;;;;4.35;1.08;;;;;;;;;;4904472;28;20047;-69
2023/03/24 01:16:36;;;;;;;3.88;1.00;;;;;;;;;;4917994;28;20039;-70
2023/03/24 01:19:02;;;;;;;6.05;1.00;;;;;;;;;;4919576;28;20522;-69
2023/03/24 01:21:31;;;;;;;4.72;1.20;;;;;;;;;;4913919;28;20543;-69
2023/03/24 01:24:00;;;;;;;3.70;1.10;;;;;;;;;;4930264;28;20360;-69
2023/03/24 01:26:31;;;;;;;6.07;1.27;;;;;;;;;;4937188;28;20030;-69
2023/03/24 01:28:59;;;;;;;3.78;1.00;;;;;;;;;;4916317;28;20125;-69
2023/03/24 01:31:26;;;;;;;3.47;0.90;;;;;;;;;;4935382;28;20519;-69
2023/03/24 01:33:55;;;;;;;5.28;1.15;;;;;;;;;;4932949;28;20695;-69
2023/03/24 01:36:21;;;;;;;6.45;1.25;;;;;;;;;;4933672;28;20332;-69
2023/03/24 01:38:49;;;;;;;4.40;1.10;;;;;;;;;;4931154;28;20038;-70
2023/03/24 01:41:17;;;;;;;4.82;1.00;;;;;;;;;;4918809;28;20760;-70
2023/03/24 01:43:45;;;;;;;5.70;0.88;;;;;;;;;;4934732;28;20297;-69
2023/03/24 01:46:25;;;;;;;4.68;1.08;;;;;;;;;;4936254;28;20343;-69
2023/03/24 01:49:08;;;;;;;4.72;1.10;;;;;;;;;;4916721;28;20090;-70
2023/03/24 01:51:41;;;;;;;5.03;1.15;;;;;;;;;;4932324;28;20520;-69
2023/03/24 01:54:13;;;;;;;4.50;1.20;;;;;;;;;;4935780;28;20113;-69
2023/03/24 01:56:43;;;;;;;6.78;1.30;;;;;;;;;;4933782;28;20038;-70
2023/03/24 01:59:13;;;;;;;5.43;1.20;;;;;;;;;;4916486;28;20054;-69
2023/03/24 02:01:41;;;;;;;6.28;1.20;;;;;;;;;;4930331;28;20027;-70
2023/03/24 02:04:10;;;;;;;6.53;1.10;;;;;;;;;;4920698;28;20129;-69
2023/03/24 02:06:39;;;;;;;3.53;1.10;;;;;;;;;;4933364;28;20461;-69
2023/03/24 02:09:08;;;;;;;6.57;1.30;;;;;;;;;;4920681;28;20051;-69
2023/03/24 02:11:37;;;;;;;5.25;1.23;;;;;;;;;;4913783;28;20536;-69
2023/03/24 02:14:04;;;;;;;6.55;1.17;;;;;;;;;;4914281;28;20375;-69
2023/03/24 02:16:50;;;;;;;6.30;1.02;;;;;;;;;;4934405;28;20284;-69
2023/03/24 02:19:52;;;;;;;5.33;1.20;;;;;;;;;;4807972;28;3601316;-69
2023/03/24 02:22:27;;;;;;;5.82;1.20;;;;;;;;;;4934095;28;20114;-69
2023/03/24 02:25:14;;;;;;;4.03;1.10;;;;;;;;;;4935781;28;20046;-69
2023/03/24 02:27:59;;;;;;;7.00;1.10;;;;;;;;;;4930646;28;20031;-69
2023/03/24 02:30:35;;;;;;;4.07;0.95;;;;;;;;;;4930133;28;20197;-69
2023/03/24 02:33:19;;;;;;;6.45;1.33;;;;;;;;;;4938224;28;20042;-69
2023/03/24 02:35:48;;;;;;;5.30;1.42;;;;;;;;;;4931643;28;20529;-69
2023/03/24 02:38:33;;;;;;;4.93;1.10;;;;;;;;;;4922262;28;20046;-70
2023/03/24 02:41:19;;;;;;;4.07;1.05;;;;;;;;;;4936536;28;20308;-70
2023/03/24 02:44:07;;;;;;;6.22;1.08;;;;;;;;;;4929779;28;20730;-70
2023/03/24 02:46:44;;;;;;;3.28;0.90;;;;;;;;;;4932964;28;20043;-70
2023/03/24 02:49:29;;;;;;;3.45;0.90;;;;;;;;;;4933526;28;20555;-69
2023/03/24 02:52:04;;;;;;;3.88;0.80;;;;;;;;;;4908193;28;20042;-70
2023/03/24 02:55:06;;;;;;;4.43;0.98;;;;;;;;;;4934358;28;20117;-70
2023/03/24 02:57:39;;;;;;;3.10;0.90;;;;;;;;;;4852108;29;20527;-69
2023/03/24 03:00:22;;;;;;;6.15;1.20;;;;;;;;;;4845898;29;20575;-70
2023/03/24 03:02:58;;;;;;;3.00;0.80;;;;;;;;;;4850818;29;20032;-70
2023/03/24 03:05:38;;;;;;;4.37;0.90;;;;;;;;;;4844308;29;21541;-70
2023/03/24 03:08:08;;;;;;;3.70;0.85;;;;;;;;;;4843194;29;20860;-68
2023/03/24 03:10:38;;;;;;;5.55;1.10;;;;;;;;;;4852389;29;20057;-69
2023/03/24 03:13:09;;;;;;;6.75;0.90;;;;;;;;;;4842443;29;20038;-69
2023/03/24 03:15:42;;;;;;;3.65;0.98;;;;;;;;;;4856804;29;20040;-70
2023/03/24 03:18:14;;;;;;;4.25;1.00;;;;;;;;;;4855106;29;20529;-69
2023/03/24 03:20:49;;;;;;;6.43;0.90;;;;;;;;;;4852853;29;20182;-69
2023/03/24 03:23:21;;;;;;;3.92;0.95;;;;;;;;;;4840785;29;20033;-69
2023/03/24 03:26:05;;;;;;;4.97;0.75;;;;;;;;;;4854715;29;20155;-69
2023/03/24 03:28:38;;;;;;;4.68;0.90;;;;;;;;;;4853506;29;20491;-68
2023/03/24 03:31:16;;;;;;;4.57;1.10;;;;;;;;;;4861228;28;20553;-68
2023/03/24 03:33:51;;;;;;;4.03;1.02;;;;;;;;;;4915112;28;20450;-69
2023/03/24 03:36:33;;;;;;;4.10;1.05;;;;;;;;;;4915949;28;20039;-69
2023/03/24 03:39:03;;;;;;;4.75;1.20;;;;;;;;;;4932020;28;20856;-70
2023/03/24 03:41:30;;;;;;;4.35;1.05;;;;;;;;;;4935765;28;20026;-69
2023/03/24 03:43:59;;;;;;;3.95;1.00;;;;;;;;;;4929733;28;20425;-70
2023/03/24 03:46:29;;;;;;;5.32;1.40;;;;;;;;;;4931940;28;20039;-70
2023/03/24 03:48:56;;;;;;;4.15;1.23;;;;;;;;;;4932310;28;20383;-70
2023/03/24 03:51:25;;;;;;;5.05;1.35;;;;;;;;;;4934925;28;20517;-69
2023/03/24 03:53:59;;;;;;;4.18;1.05;;;;;;;;;;4935443;28;20035;-71
2023/03/24 03:56:31;;;;;;;6.28;1.30;;;;;;;;;;4918709;28;20058;-70
2023/03/24 03:59:02;;;;;;;5.10;1.17;;;;;;;;;;4921907;28;20031;-70
2023/03/24 04:01:41;;;;;;;4.07;1.13;;;;;;;;;;4937798;28;20039;-69
2023/03/24 04:04:09;;;;;;;3.20;0.90;;;;;;;;;;4940705;28;20037;-70
2023/03/24 04:06:59;;;;;;;4.05;1.00;;;;;;;;;;4936691;28;20073;-70
2023/03/24 04:09:37;;;;;;;4.65;1.15;;;;;;;;;;4919037;28;20342;-69
2023/03/24 04:12:22;;;;;;;3.20;1.00;;;;;;;;;;4922081;28;20544;-69
2023/03/24 04:15:05;;;;;;;6.03;1.13;;;;;;;;;;4934150;28;20030;-69
2023/03/24 04:17:43;;;;;;;5.47;1.25;;;;;;;;;;4938493;28;20458;-69
2023/03/24 04:20:21;;;;;;;5.90;1.02;;;;;;;;;;4938529;28;20069;-69
2023/03/24 04:23:25;;;;;;;4.28;1.20;;;;;;;;;;4933734;28;20401;-69
2023/03/24 04:26:15;;;;;;;4.93;1.00;;;;;;;;;;4841901;29;20487;-69
2023/03/24 04:28:46;;;;;;;5.60;1.00;;;;;;;;;;4878132;29;20052;-70
2023/03/24 04:31:32;;;;;;;5.35;1.13;;;;;;;;;;4880212;29;20119;-69
2023/03/24 04:34:05;;;;;;;4.78;1.20;;;;;;;;;;4863012;29;20084;-69
2023/03/24 04:36:54;;;;;;;5.65;1.30;;;;;;;;;;4879323;29;20316;-69
2023/03/24 04:39:27;;;;;;;5.78;1.33;;;;;;;;;;4882867;29;20374;-69
2023/03/24 04:41:56;;;;;;;5.88;1.20;;;;;;;;;;4859359;29;23187;-70
2023/03/24 04:44:25;;;;;;;6.72;1.30;;;;;;;;;;4877767;29;20513;-69
2023/03/24 04:46:55;;;;;;;6.80;1.20;;;;;;;;;;4876137;29;20052;-70
2023/03/24 04:49:26;;;;;;;4.55;1.05;;;;;;;;;;4880359;29;20232;-70
2023/03/24 04:51:55;;;;;;;6.35;1.33;;;;;;;;;;4877956;29;20641;-70
2023/03/24 04:54:23;;;;;;;8.60;1.33;;;;;;;;;;4877317;29;20075;-70
2023/03/24 04:56:55;;;;;;;8.90;1.33;;;;;;;;;;4876628;29;20464;-69
2023/03/24 04:59:21;;;;;;;4.72;1.08;;;;;;;;;;4879872;28;20513;-69
2023/03/24 05:01:51;;;;;;;;;;;;;;;;;;4932242;28;20448;-72
2023/03/24 05:04:19;;;;;;;6.47;1.33;;;;;;;;;;4916622;28;19922;-70
2023/03/24 05:06:50;;;;;;;6.82;1.60;;;;;;;;;;4929790;28;20567;-70
2023/03/24 05:09:18;;;;;;;6.72;1.55;;;;;;;;;;4938060;28;20740;-70
2023/03/24 05:11:46;;;;;;;8.43;1.80;;;;;;;;;;4937097;28;20042;-70
2023/03/24 05:14:16;;;;;;;8.13;1.58;;;;;;;;;;4937810;28;20062;-70
2023/03/24 05:16:44;;;;;;;6.47;1.42;;;;;;;;;;4932109;28;20039;-70
2023/03/24 05:19:12;;;;;;;5.78;1.48;;;;;;;;;;4938920;28;20039;-72
2023/03/24 05:21:40;;;;;;;6.15;1.50;;;;;;;;;;4931142;28;20034;-70
2023/03/24 05:24:08;;;;;;;5.75;1.30;;;;;;;;;;4933043;28;20593;-70
2023/03/24 05:26:35;;;;;;;4.57;1.08;;;;;;;;;;4914592;28;20093;-70
2023/03/24 05:29:02;;;;;;;7.70;1.33;;;;;;;;;;4919331;28;20038;-70
2023/03/24 05:31:29;;;;;;;5.72;1.33;;;;;;;;;;4934671;28;20038;-71
2023/03/24 05:33:56;;;;;;;4.90;1.25;;;;;;;;;;4933532;28;20031;-70
2023/03/24 05:36:23;;;;;;;8.25;1.63;;;;;;;;;;4931398;28;20383;-69
2023/03/24 05:38:50;;;;;;;6.70;1.63;;;;;;;;;;4915316;28;20464;-71
2023/03/24 05:41:17;;;;;;;11.25;2.22;;;;;;;;;;4933992;28;20026;-70
2023/03/24 05:43:45;;;;;;;8.98;2.08;;;;;;;;;;4934010;28;20387;-70
2023/03/24 05:46:12;;;;;;;5.50;1.40;;;;;;;;;;4936502;28;20401;-70
2023/03/24 05:48:40;;;;;;;5.60;1.60;;;;;;;;;;4933648;28;20508;-70
2023/03/24 05:51:08;;;;;;;6.80;1.30;;;;;;;;;;4932184;28;20464;-71
2023/03/24 05:53:35;;;;;;;8.20;1.80;;;;;;;;;;4933035;28;20108;-71
2023/03/24 05:56:04;;;;;;;5.85;1.15;;;;;;;;;;4918117;28;20042;-70
2023/03/24 05:58:33;;;;;;;5.50;1.48;;;;;;;;;;4935927;28;20061;-71
2023/03/24 06:00:59;;;;;;;7.03;1.70;;;;;;;;;;4915378;28;20043;-71
2023/03/24 06:03:32;;;;;;;;;;;;;;;;;;4916590;28;20134;-71
2023/03/24 06:06:00;;;;;;;8.13;1.67;;;;;;;;;;4897410;29;20490;-71
2023/03/24 06:08:32;;;;;;;8.82;1.80;;;;;;;;;;4917042;28;20066;-71
2023/03/24 06:11:02;;;;;;;7.85;1.70;;;;;;;;;;4910353;28;20034;-70
2023/03/24 06:13:32;;;;;;;12.00;1.98;;;;;;;;;;4898006;28;20551;-71
2023/03/24 06:15:59;;;;;;;7.13;1.65;;;;;;;;;;4899749;28;20035;-70
2023/03/24 06:18:29;;;;;;;9.45;1.70;;;;;;;;;;4915932;28;20982;-70
2023/03/24 06:20:57;;;;;;;7.28;1.33;;;;;;;;;;4894934;28;20059;-71
2023/03/24 06:23:26;;;;;;;6.55;1.20;;;;;;;;;;4894815;29;20254;-70
2023/03/24 06:25:54;;;;;;;6.70;1.20;;;;;;;;;;4890201;29;21590;-70
2023/03/24 06:28:29;;;;;;;5.80;1.30;;;;;;;;;;4883292;29;20048;-70
2023/03/24 06:30:57;;;;;;;7.97;1.52;;;;;;;;;;4895471;29;20608;-70
2023/03/24 06:33:24;;;;;;;9.07;1.70;;;;;;;;;;4900419;29;20050;-70
2023/03/24 06:35:55;;;;;;;9.00;1.70;;;;;;;;;;4892871;29;20665;-71
2023/03/24 06:38:21;;;;;;;7.75;1.70;;;;;;;;;;4895495;29;20568;-70
2023/03/24 06:40:48;;;;;;;10.23;1.80;;;;;;;;;;4891151;29;20851;-70
2023/03/24 06:43:14;;;;;;;10.50;2.60;;;;;;;;;;4880419;29;20067;-70
2023/03/24 06:45:44;;;;;;;11.98;2.55;;;;;;;;;;4892115;29;20059;-71
2023/03/24 06:48:12;;;;;;;14.98;3.08;;;;;;;;;;4893937;29;20044;-71
2023/03/24 06:50:39;;;;;;;13.48;2.10;;;;;;;;;;4892642;29;20048;-71
2023/03/24 06:53:07;;;;;;;13.88;2.08;;;;;;;;;;4893888;29;20183;-70
2023/03/24 06:55:35;;;;;;;10.23;2.38;;;;;;;;;;4878220;29;20493;-70
2023/03/24 06:58:02;;;;;;;9.45;2.28;;;;;;;;;;4906959;28;20492;-71
2023/03/24 07:00:31;;;;;;;8.55;1.50;;;;;;;;;;4915266;28;20031;-71
2023/03/24 07:03:01;;;;;;;6.57;1.65;;;;;;;;;;4915565;28;20055;-71
2023/03/24 07:05:29;;;;;;;8.18;1.45;;;;;;;;;;4916518;28;20054;-70
2023/03/24 07:07:56;;;;;;;10.75;2.35;;;;;;;;;;4914404;28;20070;-70
2023/03/24 07:10:24;;;;;;;9.57;2.38;;;;;;;;;;4916599;28;20050;-70
2023/03/24 07:12:51;;;;;;;10.65;2.40;;;;;;;;;;4915143;28;20026;-71
2023/03/24 07:15:20;;;;;;;11.93;2.58;;;;;;;;;;4918316;28;20126;-71
2023/03/24 07:17:47;;;;;;;9.88;2.08;;;;;;;;;;4914775;28;20038;-71
2023/03/24 07:20:15;;;;;;;9.98;2.00;;;;;;;;;;4919105;28;20383;-70
2023/03/24 07:22:43;;;;;;;14.32;2.72;;;;;;;;;;4909233;28;20046;-71
2023/03/24 07:25:13;;;;;;;11.27;2.65;;;;;;;;;;4913945;28;20077;-70
2023/03/24 07:27:40;;;;;;;9.30;2.67;;;;;;;;;;4928027;28;20421;-71
2023/03/24 07:30:08;;;;;;;10.13;2.72;;;;;;;;;;4917261;28;20762;-71
2023/03/24 07:32:38;;;;;;;11.13;2.70;;;;;;;;;;4928691;28;20445;-72
2023/03/24 07:35:10;;;;;;;10.27;2.58;;;;;;;;;;4932014;28;20358;-71
2023/03/24 07:37:37;;;;;;;10.23;2.25;;;;;;;;;;4933938;28;20559;-71
2023/03/24 07:40:11;;;;;;;12.15;2.75;;;;;;;;;;4935861;28;20042;-71
2023/03/24 07:42:40;;;;;;;9.13;2.67;;;;;;;;;;4927563;28;20441;-71
2023/03/24 07:45:09;;;;;;;12.98;4.30;;;;;;;;;;4933220;28;20039;-71
2023/03/24 07:47:39;;;;;;;12.55;4.57;;;;;;;;;;4926762;28;20043;-71
2023/03/24 07:50:09;;;;;;;10.00;3.40;;;;;;;;;;4913924;28;20569;-71
2023/03/24 07:52:42;;;;;;;9.05;2.58;;;;;;;;;;4929817;28;20436;-70
2023/03/24 07:55:11;;;;;;;9.82;3.03;;;;;;;;;;4930669;28;20031;-71
2023/03/24 07:57:46;;;;;;;10.23;3.30;;;;;;;;;;4926412;28;20089;-72
2023/03/24 08:00:20;;;;;;;11.57;3.40;;;;;;;;;;4931582;28;20082;-73
2023/03/24 08:02:56;;;;;;;11.48;3.10;;;;;;;;;;4931343;28;20419;-70
2023/03/24 08:05:23;;;;;;;11.68;3.03;;;;;;;;;;4932835;28;20031;-70
2023/03/24 08:07:54;;;;;;;11.05;3.10;;;;;;;;;;4928283;28;20039;-70
2023/03/24 08:10:35;;;;;;;12.23;3.17;;;;;;;;;;4919088;28;20049;-70
2023/03/24 08:13:02;;;;;;;12.80;3.15;;;;;;;;;;4918265;28;20125;-70
2023/03/24 08:15:29;;;;;;;10.35;2.90;;;;;;;;;;4928977;28;20129;-71
2023/03/24 08:17:57;;;;;;;14.30;2.47;;;;;;;;;;4931101;28;20038;-72
2023/03/24 08:20:26;;;;;;;8.65;2.45;;;;;;;;;;4930301;28;20400;-71
2023/03/24 08:22:53;;;;;;;9.27;2.08;;;;;;;;;;4927374;28;20199;-72
2023/03/24 08:25:22;;;;;;;8.68;2.35;;;;;;;;;;4929955;28;20375;-71
2023/03/24 08:27:50;;;;;;;8.60;2.40;;;;;;;;;;4913160;28;20039;-71
2023/03/24 08:30:20;;;;;;;10.32;2.50;;;;;;;;;;4929047;28;20120;-70
2023/03/24 08:32:50;;;;;;;10.85;2.42;;;;;;;;;;4930386;28;20573;-70
2023/03/24 08:35:18;;;;;;;9.77;2.08;;;;;;;;;;4931416;28;20042;-70
2023/03/24 08:37:47;;;;;;;10.25;2.58;;;;;;;;;;4911723;28;20366;-70
2023/03/24 08:40:18;;;;;;;9.27;2.40;;;;;;;;;;4938451;28;20215;-70
2023/03/24 08:42:45;;;;;;;9.38;2.72;;;;;;;;;;4902266;28;20545;-70
2023/03/24 08:45:13;;;;;;;11.35;2.30;;;;;;;;;;4921581;28;20034;-71
2023/03/24 08:47:41;;;;;;;10.93;2.30;;;;;;;;;;4927863;28;20046;-71
2023/03/24 08:50:09;;;;;;;7.78;2.03;;;;;;;;;;4918455;28;20105;-72
2023/03/24 08:52:38;;;;;;;6.63;2.00;;;;;;;;;;4918569;28;20433;-71
2023/03/24 08:55:06;;;;;;;6.97;1.65;;;;;;;;;;4912900;28;20505;-71
2023/03/24 08:57:35;;;;;;;6.47;1.45;;;;;;;;;;4933122;28;20035;-71
2023/03/24 09:00:08;;;;;;;6.28;1.45;;;;;;;;;;4933108;28;20110;-70
2023/03/24 09:02:38;;;;;;;6.00;1.65;;;;;;;;;;4931745;28;20382;-71
2023/03/24 09:05:05;;;;;;;6.65;1.60;;;;;;;;;;4897212;29;20047;-70
2023/03/24 09:07:32;;;;;;;5.78;1.60;;;;;;;;;;4895419;29;20046;-71
2023/03/24 09:09:59;;;;;;;8.88;2.00;;;;;;;;;;4875630;29;20633;-71
2023/03/24 09:12:28;;;;;;;5.53;1.55;;;;;;;;;;4893759;29;20502;-72
2023/03/24 09:14:56;;;;;;;5.10;1.58;;;;;;;;;;4893038;29;20040;-70
2023/03/24 09:17:25;;;;;;;8.73;1.73;;;;;;;;;;4894701;29;20048;-70
2023/03/24 09:19:52;;;;;;;7.45;1.70;;;;;;;;;;4891252;29;20598;-71
2023/03/24 09:22:20;;;;;;;5.25;1.40;;;;;;;;;;4896802;29;20497;-71
2023/03/24 09:24:48;;;;;;;9.25;1.77;;;;;;;;;;4893274;29;20027;-70
2023/03/24 09:27:16;;;;;;;11.13;1.85;;;;;;;;;;4876571;29;20047;-70
2023/03/24 09:29:43;;;;;;;7.90;2.20;;;;;;;;;;4890085;29;20172;-70
2023/03/24 09:32:11;;;;;;;10.65;2.17;;;;;;;;;;4893353;29;20720;-71
2023/03/24 09:34:39;;;;;;;6.88;1.70;;;;;;;;;;4895221;29;20887;-70
2023/03/24 09:37:06;;;;;;;10.77;2.47;;;;;;;;;;4898451;29;20047;-70
2023/03/24 09:39:37;;;;;;;9.07;2.05;;;;;;;;;;4893212;29;20075;-70
2023/03/24 09:42:05;;;;;;;7.32;1.90;;;;;;;;;;4899835;29;20039;-70
2023/03/24 09:44:43;;;;;;;6.53;1.73;;;;;;;;;;4894325;29;21184;-70
2023/03/24 09:47:23;;;;;;;6.10;1.40;;;;;;;;;;4879357;29;20043;-70
2023/03/24 09:50:02;;;;;;;9.63;1.90;;;;;;;;;;4921476;28;20086;-70
2023/03/24 09:52:41;;;;;;;6.80;1.70;;;;;;;;;;4934539;28;20472;-71
2023/03/24 09:55:14;;;;;;;5.72;1.65;;;;;;;;;;4920019;28;20143;-72
2023/03/24 09:57:45;;;;;;;5.55;1.50;;;;;;;;;;4931971;28;20109;-70
2023/03/24 10:00:31;;;;;;;9.25;1.70;;;;;;;;;;4917550;28;20132;-70
2023/03/24 10:03:11;;;;;;;7.95;1.63;;;;;;;;;;4918756;28;20042;-70
2023/03/24 10:05:43;;;;;;;7.57;1.90;;;;;;;;;;4897964;28;20027;-70
2023/03/24 10:08:14;;;;;;;6.70;1.60;;;;;;;;;;4921153;28;20153;-70
2023/03/24 10:10:48;;;;;;;6.97;1.63;;;;;;;;;;4932496;28;20031;-70
2023/03/24 10:13:26;;;;;;;9.57;1.90;;;;;;;;;;4932716;28;20039;-70
2023/03/24 10:15:59;;;;;;;9.43;2.00;;;;;;;;;;4912729;28;20110;-70
2023/03/24 10:18:45;;;;;;;18.02;2.20;;;;;;;;;;4916656;28;20398;-70
2023/03/24 10:21:25;;;;;;;9.45;2.30;;;;;;;;;;4916312;28;20568;-70
2023/03/24 10:24:04;;;;;;;12.52;2.28;;;;;;;;;;4929815;28;20105;-72
2023/03/24 10:26:38;;;;;;;11.52;2.88;;;;;;;;;;4936364;28;20027;-72
2023/03/24 10:29:24;;;;;;;14.07;3.05;;;;;;;;;;4936108;28;20041;-72
2023/03/24 10:31:58;;;;;;;11.18;2.50;;;;;;;;;;4917255;28;20378;-71
2023/03/24 10:34:32;;;;;;;9.93;2.20;;;;;;;;;;4918938;28;20183;-71
2023/03/24 10:37:02;;;;;;;10.60;2.38;;;;;;;;;;4935974;28;20133;-71
2023/03/24 10:39:30;;;;;;;11.40;2.78;;;;;;;;;;4908158;28;20061;-71
2023/03/24 10:41:59;;;;;;;7.28;2.38;;;;;;;;;;4932355;28;20497;-70
2023/03/24 10:44:29;;;;;;;10.27;2.30;;;;;;;;;;4933607;28;20134;-70
2023/03/24 10:46:58;;;;;;;8.93;2.03;;;;;;;;;;4930204;28;20816;-70
2023/03/24 10:49:26;;;;;;;9.27;2.15;;;;;;;;;;4914357;28;20038;-69
2023/03/24 10:52:00;;;;;;;10.75;2.30;;;;;;;;;;4928695;28;20039;-70
2023/03/24 10:54:30;;;;;;;10.68;2.40;;;;;;;;;;4915699;28;20034;-72
2023/03/24 10:57:01;;;;;;;10.68;2.75;;;;;;;;;;4901104;28;20053;-71
2023/03/24 10:59:41;;;;;;;10.75;2.35;;;;;;;;;;4933596;28;20045;-71
2023/03/24 11:02:28;;;;;;;9.98;2.42;;;;;;;;;;4917861;28;20166;-70
2023/03/24 11:05:02;;;;;;;8.07;1.80;;;;;;;;;;4930783;28;20032;-72
2023/03/24 11:07:34;;;;;;;9.43;1.88;;;;;;;;;;4933865;28;20630;-70
2023/03/24 11:10:17;;;;;;;7.25;1.77;;;;;;;;;;4918582;28;20085;-70
2023/03/24 11:12:52;;;;;;;13.60;2.13;;;;;;;;;;4933025;28;20817;-70
2023/03/24 11:15:22;;;;;;;14.82;2.78;;;;;;;;;;4931263;28;20065;-70
2023/03/24 11:17:57;;;;;;;9.55;2.35;;;;;;;;;;4901167;28;20122;-70
2023/03/24 11:20:37;;;;;;;8.63;1.88;;;;;;;;;;4929815;28;20751;-72
2023/03/24 11:23:22;;;;;;;7.57;1.95;;;;;;;;;;4915165;28;20051;-70
2023/03/24 11:26:18;;;;;;;9.60;2.05;;;;;;;;;;4928082;28;20041;-72
2023/03/24 11:28:44;;;;;;;10.38;2.47;;;;;;;;;;4875819;29;20616;-70
2023/03/24 11:31:17;;;;;;;9.10;2.35;;;;;;;;;;4878938;29;20047;-71
2023/03/24 11:34:07;;;;;;;10.52;2.05;;;;;;;;;;4858190;29;20065;-72
2023/03/24 11:36:46;;;;;;;8.70;2.20;;;;;;;;;;4873267;29;20177;-71
2023/03/24 11:39:25;;;;;;;9.10;2.33;;;;;;;;;;4861678;29;20406;-70
2023/03/24 11:41:52;;;;;;;9.32;2.10;;;;;;;;;;4873282;29;20663;-70
2023/03/24 11:44:25;;;;;;;9.27;2.30;;;;;;;;;;4875301;29;20565;-70
2023/03/24 11:47:00;;;;;;;8.98;2.60;;;;;;;;;;4858856;29;20056;-71
2023/03/24 11:49:33;;;;;;;6.78;2.10;;;;;;;;;;4847523;29;20052;-71
2023/03/24 11:52:03;;;;;;;10.00;2.28;;;;;;;;;;4879176;29;20360;-70
2023/03/24 11:54:33;;;;;;;11.38;1.98;;;;;;;;;;4878046;29;20048;-70
2023/03/24 11:57:03;;;;;;;10.02;2.85;;;;;;;;;;4878816;29;20067;-70
2023/03/24 11:59:47;;;;;;;10.23;2.60;;;;;;;;;;4858150;29;20325;-70
2023/03/24 12:02:31;;;;;;;8.85;2.58;;;;;;;;;;4876379;29;20084;-70
2023/03/24 12:05:18;;;;;;;9.57;2.05;;;;;;;;;;4888982;28;20034;-71
2023/03/24 12:07:55;;;;;;;9.98;2.50;;;;;;;;;;4929683;28;20027;-71
2023/03/24 12:10:40;;;;;;;12.50;2.25;;;;;;;;;;4927657;28;20167;-71
2023/03/24 12:13:15;;;;;;;13.25;2.33;;;;;;;;;;4912952;28;20085;-70
2023/03/24 12:16:00;;;;;;;9.38;2.28;;;;;;;;;;4929885;28;20031;-71
2023/03/24 12:18:46;;;;;;;7.72;2.25;;;;;;;;;;4935784;28;20112;-71
2023/03/24 12:21:15;;;;;;;9.85;2.30;;;;;;;;;;4936910;28;20404;-71
2023/03/24 12:23:47;;;;;;;11.70;2.40;;;;;;;;;;4930584;28;20351;-70
2023/03/24 12:26:24;;;;;;;9.02;2.58;;;;;;;;;;4937424;28;20031;-71
2023/03/24 12:29:10;;;;;;;8.63;2.40;;;;;;;;;;4920862;28;20196;-72
2023/03/24 12:31:55;;;;;;;11.88;2.53;;;;;;;;;;4929175;28;20119;-72
2023/03/24 12:34:34;;;;;;;9.98;2.90;;;;;;;;;;4936383;28;20062;-71
2023/03/24 12:37:19;;;;;;;9.63;2.60;;;;;;;;;;4938128;28;20622;-70
2023/03/24 12:39:55;;;;;;;10.57;2.30;;;;;;;;;;4930120;28;20035;-70
2023/03/24 12:42:23;;;;;;;22.38;2.33;;;;;;;;;;4933987;28;20034;-72
2023/03/24 12:45:12;;;;;;;8.20;2.28;;;;;;;;;;4932025;28;20074;-70
2023/03/24 12:47:41;;;;;;;10.25;2.33;;;;;;;;;;4933114;28;20105;-71
2023/03/24 12:50:27;;;;;;;7.63;2.10;;;;;;;;;;4933115;28;20030;-70
2023/03/24 12:53:08;;;;;;;12.60;2.50;;;;;;;;;;4914884;28;21027;-72
2023/03/24 12:55:54;;;;;;;9.55;2.30;;;;;;;;;;4928512;28;20073;-70
2023/03/24 12:58:31;;;;;;;9.02;2.20;;;;;;;;;;4931081;28;20484;-71
2023/03/24 13:01:37;;;;;;;9.80;2.30;;;;;;;;;;4921603;28;20035;-70
2023/03/24 13:04:33;;;;;;;9.73;2.33;;;;;;;;;;4874577;29;20119;-71
2023/03/24 13:07:05;;;;;;;7.40;2.00;;;;;;;;;;4860815;29;20805;-70
2023/03/24 13:09:54;;;;;;;9.90;2.33;;;;;;;;;;4873657;29;20036;-72
2023/03/24 13:12:32;;;;;;;7.25;2.15;;;;;;;;;;4875924;29;20312;-71
2023/03/24 13:15:16;;;;;;;12.40;2.60;;;;;;;;;;4862957;29;20048;-71
2023/03/24 13:17:47;;;;;;;10.32;2.55;;;;;;;;;;4871523;29;20120;-72
2023/03/24 13:20:20;;;;;;;8.88;2.40;;;;;;;;;;4871567;29;20051;-72
2023/03/24 13:22:48;;;;;;;11.63;2.97;;;;;;;;;;4872283;29;20020;-70
2023/03/24 13:25:37;;;;;;;8.80;2.17;;;;;;;;;;4872971;29;20387;-70
2023/03/24 13:28:16;;;;;;;9.35;2.30;;;;;;;;;;4879196;29;20464;-71
2023/03/24 13:30:44;;;;;;;8.52;2.55;;;;;;;;;;4859638;29;20055;-70
2023/03/24 13:33:21;;;;;;;8.45;2.45;;;;;;;;;;4879645;29;20523;-70
2023/03/24 13:35:57;;;;;;;7.88;2.22;;;;;;;;;;4862768;29;20059;-70
2023/03/24 13:38:44;;;;;;;8.98;2.28;;;;;;;;;;4872059;29;20789;-70
2023/03/24 13:41:18;;;;;;;8.13;2.15;;;;;;;;;;4923882;28;20047;-70
2023/03/24 13:43:49;;;;;;;7.70;2.20;;;;;;;;;;4918400;28;20043;-71
2023/03/24 13:46:19;;;;;;;9.07;2.20;;;;;;;;;;4942854;28;20114;-71
2023/03/24 13:48:51;;;;;;;7.18;2.13;;;;;;;;;;4919742;28;20212;-71
2023/03/24 13:51:24;;;;;;;8.77;2.50;;;;;;;;;;4941333;28;20761;-73
2023/03/24 13:54:19;;;;;;;10.85;2.50;;;;;;;;;;4927117;28;20046;-70
2023/03/24 13:56:57;;;;;;;9.50;2.40;;;;;;;;;;4937593;28;20022;-70
2023/03/24 13:59:27;;;;;;;10.13;2.70;;;;;;;;;;4940851;28;20039;-71
2023/03/24 14:02:13;;;;;;;8.63;2.10;;;;;;;;;;4938782;28;20372;-71
2023/03/24 14:04:41;;;;;;;;;;;;;;;;;;4942967;28;20114;-70
2023/03/24 14:07:26;;;;;;;12.40;2.17;;;;;;;;;;4942012;28;20232;-71
2023/03/24 14:10:02;;;;;;;10.10;2.53;;;;;;;;;;4938342;28;20038;-71
2023/03/24 14:12:33;;;;;;;10.18;2.50;;;;;;;;;;4941822;28;20615;-70
2023/03/24 14:15:18;;;;;;;11.20;2.40;;;;;;;;;;4923799;28;20691;-71
2023/03/24 14:17:47;;;;;;;8.55;2.10;;;;;;;;;;4902348;28;20034;-72
2023/03/24 14:20:34;;;;;;;9.30;2.28;;;;;;;;;;4924449;28;20074;-71
2023/03/24 14:23:03;;;;;;;9.57;2.28;;;;;;;;;;4939992;28;20383;-70
2023/03/24 14:25:32;;;;;;;8.32;2.10;;;;;;;;;;4941736;28;20030;-71
2023/03/24 14:28:19;;;;;;;9.70;2.45;;;;;;;;;;4906207;28;20050;-71
2023/03/24 14:31:08;;;;;;;11.52;2.47;;;;;;;;;;4903064;28;20512;-71
2023/03/24 14:33:38;;;;;;;7.85;1.88;;;;;;;;;;4932954;28;20484;-70
2023/03/24 14:36:13;;;;;;;8.68;2.15;;;;;;;;;;4932607;28;20062;-71
2023/03/24 14:39:10;;;;;;;7.28;2.17;;;;;;;;;;4932139;28;20069;-70
2023/03/24 14:41:43;;;;;;;11.00;2.10;;;;;;;;;;4938614;28;20525;-71
2023/03/24 14:44:15;;;;;;;10.13;1.88;;;;;;;;;;4943125;28;20336;-70
2023/03/24 14:46:46;;;;;;;8.38;2.05;;;;;;;;;;4938814;28;20331;-71
2023/03/24 14:49:32;;;;;;;9.98;1.98;;;;;;;;;;4934923;28;20508;-70
2023/03/24 14:52:01;;;;;;;9.38;2.25;;;;;;;;;;4939198;28;20312;-70
2023/03/24 14:54:44;;;;;;;10.93;2.38;;;;;;;;;;4937489;28;20109;-70
2023/03/24 14:57:37;;;;;;;10.45;2.30;;;;;;;;;;4921256;28;20508;-71
2023/03/24 15:00:14;;;;;;;8.10;2.30;;;;;;;;;;4937153;28;20479;-70
2023/03/24 15:02:46;;;;;;;8.55;2.60;;;;;;;;;;4940681;28;20051;-71
2023/03/24 15:05:32;;;;;;;8.48;2.35;;;;;;;;;;4940664;28;20026;-71
2023/03/24 15:08:04;;;;;;;9.37;2.30;;;;;;;;;;4936127;28;20579;-72
2023/03/24 15:10:57;;;;;;;10.15;2.97;;;;;;;;;;4923539;28;20354;-71
2023/03/24 15:13:49;;;;;;;11.15;2.70;;;;;;;;;;4937787;28;20122;-72
2023/03/24 15:16:24;;;;;;;12.50;3.33;;;;;;;;;;4939818;28;20046;-71
2023/03/24 15:19:20;;;;;;;9.68;2.78;;;;;;;;;;4936943;28;20074;-71